Time;durP1;ratioP1;P1;durP2;ratioP2;P2;SDS_P1;SDS_P2;PMS_P1;PMS_P2;Temp;Humidity;BMP_temperature;BMP_pressure;BME280_temperature;BME280_humidity;BME280_pressure;Samples;Min_cycle;Max_cycle;Signal;HPM_P1;HPM_P2
2021/12/04 00:01:50;;;;;;;35.00;18.77;;;4.50;99.90;;;;;;5073356;28;20040;-47
2021/12/04 00:04:37;;;;;;;39.20;19.08;;;4.50;99.90;;;;;;5090491;28;20040;-47
2021/12/04 00:07:06;;;;;;;35.00;17.73;;;4.50;99.90;;;;;;5094470;28;20096;-48
2021/12/04 00:09:33;;;;;;;35.35;19.30;;;4.50;99.90;;;;;;5094150;28;20127;-47
2021/12/04 00:12:05;;;;;;;35.75;18.90;;;4.50;99.90;;;;;;5071976;28;20040;-46
2021/12/04 00:14:33;;;;;;;33.85;18.60;;;4.50;99.90;;;;;;5074772;28;20054;-46
2021/12/04 00:17:01;;;;;;;32.80;17.80;;;4.50;99.90;;;;;;5110729;28;20085;-46
2021/12/04 00:19:28;;;;;;;35.55;18.70;;;4.50;99.90;;;;;;5084480;28;20106;-47
2021/12/04 00:21:54;;;;;;;37.97;19.73;;;4.50;99.90;;;;;;5092604;28;20051;-46
2021/12/04 00:24:21;;;;;;;37.87;19.93;;;4.50;99.90;;;;;;5087535;28;20039;-46
2021/12/04 00:26:48;;;;;;;36.60;19.77;;;4.50;99.90;;;;;;5055098;28;20286;-46
2021/12/04 00:29:16;;;;;;;33.97;18.80;;;4.50;99.90;;;;;;5072985;28;20371;-45
2021/12/04 00:32:09;;;;;;;39.42;19.40;;;4.50;99.90;;;;;;5083442;28;20385;-48
2021/12/04 00:34:33;;;;;;;36.72;17.92;;;4.50;99.90;;;;;;5068743;28;20497;-46
2021/12/04 00:37:38;;;;;;;39.88;20.05;;;4.50;99.90;;;;;;5066696;28;20039;-48
2021/12/04 00:51:01;;;;;;;42.90;20.20;;;4.50;99.90;;;;;;5102558;28;20177;-47
2021/12/04 00:53:27;;;;;;;45.40;21.70;;;4.40;99.90;;;;;;5065726;28;20517;-47
2021/12/04 00:55:53;;;;;;;45.05;20.20;;;4.50;99.90;;;;;;5085949;28;20083;-47
2021/12/04 00:58:18;;;;;;;42.47;20.35;;;4.50;99.90;;;;;;5065338;28;20576;-46
2021/12/04 01:00:44;;;;;;;47.80;22.70;;;4.50;99.90;;;;;;5085610;28;20040;-46
2021/12/04 01:03:10;;;;;;;43.78;21.45;;;4.50;99.90;;;;;;5093736;28;20039;-46
2021/12/04 01:05:36;;;;;;;47.80;20.08;;;4.50;99.90;;;;;;5075774;28;20152;-46
2021/12/04 01:08:03;;;;;;;45.50;19.90;;;4.50;99.90;;;;;;5092639;28;20043;-46
2021/12/04 01:10:29;;;;;;;48.97;21.40;;;4.50;99.90;;;;;;5103937;28;20036;-48
2021/12/04 01:13:00;;;;;;;49.53;21.27;;;4.50;99.90;;;;;;5095398;28;20079;-47
2021/12/04 01:15:27;;;;;;;45.13;20.55;;;4.40;99.90;;;;;;5103118;28;20048;-47
2021/12/04 01:17:54;;;;;;;43.63;21.65;;;4.40;99.90;;;;;;5068828;28;20097;-50
2021/12/04 01:20:20;;;;;;;44.97;22.10;;;4.50;99.90;;;;;;5055578;28;20150;-48
2021/12/04 01:22:46;;;;;;;47.20;21.02;;;4.40;99.90;;;;;;5092315;28;20490;-47
2021/12/04 01:25:12;;;;;;;47.50;20.40;;;4.50;99.90;;;;;;5090740;28;20052;-50
2021/12/04 01:27:38;;;;;;;51.40;22.75;;;4.40;99.90;;;;;;5073652;28;20131;-48
2021/12/04 01:30:06;;;;;;;51.42;21.95;;;4.40;99.90;;;;;;5082212;28;20032;-48
2021/12/04 01:32:33;;;;;;;51.83;22.80;;;4.40;99.90;;;;;;5071883;28;20485;-47
2021/12/04 01:34:59;;;;;;;53.03;21.88;;;4.40;99.90;;;;;;5098713;28;20074;-49
2021/12/04 01:37:25;;;;;;;57.05;22.45;;;4.40;99.90;;;;;;5072236;28;20455;-49
2021/12/04 01:39:51;;;;;;;61.35;22.88;;;4.40;99.90;;;;;;5062667;28;20157;-50
2021/12/04 01:42:20;;;;;;;54.95;22.92;;;4.40;99.90;;;;;;5071113;28;20195;-47
2021/12/04 01:44:48;;;;;;;48.03;19.73;;;4.40;99.90;;;;;;5081580;28;20051;-47
2021/12/04 01:47:23;;;;;;;56.45;21.85;;;4.40;99.90;;;;;;5074667;28;20073;-48
2021/12/04 01:49:50;;;;;;;58.38;22.48;;;4.40;99.90;;;;;;5094232;28;20373;-47
2021/12/04 01:52:19;;;;;;;;;;;4.40;99.90;;;;;;5106210;28;20127;-48
2021/12/04 01:54:46;;;;;;;48.47;19.75;;;4.40;99.90;;;;;;5076230;28;19924;-49
2021/12/04 01:57:16;;;;;;;57.22;21.70;;;4.40;99.90;;;;;;5085908;28;20139;-46
2021/12/04 01:59:44;;;;;;;49.03;21.30;;;4.40;99.90;;;;;;5093010;28;20300;-50
2021/12/04 02:02:09;;;;;;;57.97;22.80;;;4.40;99.90;;;;;;5075231;28;20122;-48
2021/12/04 02:04:37;;;;;;;54.60;22.60;;;4.40;99.90;;;;;;5071585;28;20123;-48
2021/12/04 02:07:04;;;;;;;59.05;23.23;;;4.40;99.90;;;;;;5093112;28;20036;-48
2021/12/04 02:09:35;;;;;;;58.67;23.52;;;4.40;99.90;;;;;;5060935;28;20055;-46
2021/12/04 02:12:05;;;;;;;50.63;21.75;;;4.40;99.90;;;;;;5091406;28;20080;-47
2021/12/04 02:14:35;;;;;;;52.25;20.00;;;4.40;99.90;;;;;;5074478;28;20055;-47
2021/12/04 02:17:03;;;;;;;59.08;21.42;;;4.40;99.90;;;;;;5062682;28;20093;-47
2021/12/04 02:19:30;;;;;;;52.92;21.85;;;4.40;99.90;;;;;;5087906;28;20043;-47
2021/12/04 02:21:56;;;;;;;55.20;21.25;;;4.40;99.90;;;;;;5084089;28;20132;-46
2021/12/04 02:24:22;;;;;;;53.45;20.85;;;4.40;99.90;;;;;;5074345;28;20490;-47
2021/12/04 02:26:49;;;;;;;53.38;20.50;;;4.40;99.90;;;;;;5068883;28;20056;-47
2021/12/04 02:29:16;;;;;;;59.70;21.58;;;4.40;99.90;;;;;;5090909;28;20050;-46
2021/12/04 02:31:52;;;;;;;63.72;22.65;;;4.40;99.90;;;;;;5100972;28;20138;-46
2021/12/04 02:34:24;;;;;;;53.30;21.30;;;4.40;99.90;;;;;;5087697;28;20048;-48
2021/12/04 02:36:50;;;;;;;54.17;22.60;;;4.40;99.90;;;;;;5106253;28;20046;-46
2021/12/04 02:39:26;;;;;;;63.53;25.13;;;4.40;99.90;;;;;;5090803;28;20123;-47
2021/12/04 02:41:52;;;;;;;64.15;22.27;;;4.40;99.90;;;;;;5072044;28;20047;-47
2021/12/04 02:44:18;;;;;;;58.33;21.38;;;4.40;99.90;;;;;;5080803;28;20047;-46
2021/12/04 02:46:44;;;;;;;47.42;20.40;;;4.40;99.90;;;;;;5104516;28;20048;-46
2021/12/04 02:49:13;;;;;;;60.67;22.65;;;4.30;99.90;;;;;;5092183;28;20119;-45
2021/12/04 02:51:39;;;;;;;63.67;21.65;;;4.40;99.90;;;;;;5076326;28;21188;-47
2021/12/04 02:54:07;;;;;;;59.20;20.10;;;4.40;99.90;;;;;;5084292;28;20052;-47
2021/12/04 02:56:33;;;;;;;59.38;22.58;;;4.40;99.90;;;;;;5092148;28;20136;-47
2021/12/04 02:59:02;;;;;;;56.70;20.75;;;4.40;99.90;;;;;;5066890;28;20032;-47
2021/12/04 03:01:28;;;;;;;61.15;20.40;;;4.40;99.90;;;;;;5108411;28;20054;-47
2021/12/04 03:04:11;;;;;;;55.33;20.70;;;4.40;99.90;;;;;;5073638;28;20039;-47
2021/12/04 03:06:44;;;;;;;57.83;21.95;;;4.40;99.90;;;;;;5097668;28;20043;-47
2021/12/04 03:09:10;;;;;;;60.33;22.05;;;4.40;99.90;;;;;;5063698;28;20048;-46
2021/12/04 03:11:36;;;;;;;57.63;20.33;;;4.40;99.90;;;;;;5070063;28;20059;-46
2021/12/04 03:14:04;;;;;;;64.07;21.02;;;4.30;99.90;;;;;;5072786;28;20040;-47
2021/12/04 03:16:32;;;;;;;57.45;21.35;;;4.40;99.90;;;;;;5072943;28;20408;-48
2021/12/04 03:18:58;;;;;;;57.83;20.77;;;4.40;99.90;;;;;;5050566;28;20063;-50
2021/12/04 03:21:25;;;;;;;62.67;20.70;;;4.30;99.90;;;;;;5078571;28;20050;-46
2021/12/04 03:24:05;;;;;;;50.90;20.20;;;4.30;99.90;;;;;;5105054;28;20560;-46
2021/12/04 03:26:32;;;;;;;53.03;20.13;;;4.30;99.90;;;;;;5091139;28;20163;-47
2021/12/04 03:29:02;;;;;;;58.30;20.55;;;4.30;99.90;;;;;;5090795;28;20050;-48
2021/12/04 03:42:09;;;;;;;42.67;16.38;;;4.30;99.90;;;;;;5086907;28;20044;-47
2021/12/04 03:44:35;;;;;;;46.95;17.27;;;4.30;99.90;;;;;;5055565;28;20390;-46
2021/12/04 03:47:01;;;;;;;44.75;18.52;;;4.30;99.90;;;;;;5055836;28;20043;-47
2021/12/04 03:49:27;;;;;;;45.42;16.65;;;4.30;99.90;;;;;;5085335;28;20032;-46
2021/12/04 03:51:53;;;;;;;43.47;16.30;;;4.30;99.90;;;;;;5068092;28;20036;-46
2021/12/04 03:54:20;;;;;;;46.80;18.17;;;4.30;99.90;;;;;;5086053;28;20093;-48
2021/12/04 03:56:46;;;;;;;37.70;15.27;;;4.30;99.90;;;;;;5088006;28;20044;-47
2021/12/04 03:59:12;;;;;;;41.53;15.73;;;4.30;99.90;;;;;;5081754;28;20141;-48
2021/12/04 04:01:38;;;;;;;44.33;16.05;;;4.30;99.90;;;;;;5089960;28;20073;-47
2021/12/04 04:04:04;;;;;;;37.03;16.48;;;4.30;99.90;;;;;;5050839;28;20119;-46
2021/12/04 04:06:30;;;;;;;42.72;16.40;;;4.30;99.90;;;;;;5066206;28;20043;-46
2021/12/04 04:08:56;;;;;;;39.25;16.83;;;4.20;99.90;;;;;;5092704;28;20058;-46
2021/12/04 04:11:22;;;;;;;38.13;15.30;;;4.20;99.90;;;;;;5074624;28;20474;-50
2021/12/04 04:13:48;;;;;;;39.45;16.55;;;4.30;99.90;;;;;;5088978;28;20047;-46
2021/12/04 04:16:14;;;;;;;39.42;15.60;;;4.20;99.90;;;;;;5086123;28;20542;-47
2021/12/04 04:18:40;;;;;;;39.38;16.35;;;4.20;99.90;;;;;;5060263;28;20101;-47
2021/12/04 04:21:06;;;;;;;33.55;14.15;;;4.20;99.90;;;;;;5074209;28;20048;-46
2021/12/04 04:23:32;;;;;;;39.58;15.00;;;4.20;99.90;;;;;;5060840;28;20052;-47
2021/12/04 04:25:58;;;;;;;40.30;16.05;;;4.20;99.90;;;;;;5092798;28;20481;-46
2021/12/04 04:28:24;;;;;;;36.35;15.07;;;4.20;99.90;;;;;;5084094;28;20470;-48
2021/12/04 04:30:50;;;;;;;42.15;17.15;;;4.20;99.90;;;;;;5085382;28;20624;-46
2021/12/04 04:33:16;;;;;;;36.40;15.75;;;4.20;99.90;;;;;;5090818;28;20053;-47
2021/12/04 04:35:46;;;;;;;36.75;14.70;;;4.20;99.90;;;;;;5090328;28;20600;-47
2021/12/04 04:38:28;;;;;;;38.67;14.73;;;4.20;99.90;;;;;;5072003;28;20136;-46
2021/12/04 05:11:33;;;;;;;37.53;14.48;;;4.20;99.90;;;;;;5076241;28;20539;-47
2021/12/04 05:14:02;;;;;;;38.38;13.57;;;4.20;99.90;;;;;;5089824;28;20077;-47
2021/12/04 05:16:40;;;;;;;35.20;14.77;;;4.20;99.90;;;;;;5068910;28;20040;-47
2021/12/04 05:19:24;;;;;;;;;;;4.20;99.90;;;;;;5080702;28;20039;-47
2021/12/04 05:21:50;;;;;;;31.83;12.82;;;4.20;99.90;;;;;;5099245;28;20234;-49
2021/12/04 05:24:16;;;;;;;38.70;14.40;;;4.20;99.90;;;;;;5075302;28;20465;-48
2021/12/04 05:26:42;;;;;;;38.60;14.25;;;4.20;99.90;;;;;;5081062;28;20139;-47
2021/12/04 05:29:08;;;;;;;32.97;13.43;;;4.20;99.90;;;;;;5067875;28;20048;-47
2021/12/04 05:31:34;;;;;;;34.90;13.45;;;4.20;99.90;;;;;;5077929;28;20047;-47
2021/12/04 05:33:59;;;;;;;34.80;14.50;;;4.20;99.90;;;;;;5073989;28;20051;-47
2021/12/04 05:36:25;;;;;;;34.10;13.93;;;4.20;99.90;;;;;;5071501;28;20144;-47
2021/12/04 05:38:52;;;;;;;39.03;14.45;;;4.20;99.90;;;;;;5089850;28;20066;-47
2021/12/04 05:41:19;;;;;;;34.22;14.15;;;4.20;99.90;;;;;;5058197;28;20456;-48
2021/12/04 05:43:47;;;;;;;35.80;12.88;;;4.20;99.90;;;;;;5097566;28;20424;-47
2021/12/04 05:46:15;;;;;;;35.22;13.50;;;4.20;99.90;;;;;;5102136;28;20485;-47
2021/12/04 05:53:57;;;;;;;36.95;15.15;;;4.20;99.90;;;;;;5079839;28;20040;-47
2021/12/04 05:56:23;;;;;;;33.42;13.02;;;4.20;99.90;;;;;;5078392;28;20047;-48
2021/12/04 05:58:50;;;;;;;32.58;13.63;;;4.20;99.90;;;;;;5074371;28;20040;-47
2021/12/04 06:01:19;;;;;;;30.10;12.93;;;4.20;99.90;;;;;;5092951;28;20040;-47
2021/12/04 06:03:47;;;;;;;33.30;12.68;;;4.20;99.90;;;;;;5058155;28;20310;-46
2021/12/04 06:06:13;;;;;;;33.47;12.48;;;4.20;99.90;;;;;;5091409;28;20039;-48
2021/12/04 06:08:39;;;;;;;30.60;12.52;;;4.20;99.90;;;;;;5092824;28;20040;-47
2021/12/04 06:11:05;;;;;;;31.00;12.80;;;4.20;99.90;;;;;;5058078;28;20044;-47
2021/12/04 06:13:31;;;;;;;31.45;13.50;;;4.20;99.90;;;;;;5102116;28;20514;-47
2021/12/04 06:15:57;;;;;;;30.02;12.95;;;4.20;99.90;;;;;;5110730;28;20370;-47
2021/12/04 06:18:23;;;;;;;30.95;12.82;;;4.10;99.90;;;;;;5057658;28;20035;-46
2021/12/04 06:23:35;;;;;;;27.13;11.60;;;4.10;99.90;;;;;;5113147;28;20055;-47
2021/12/04 06:26:01;;;;;;;27.95;12.90;;;4.10;99.90;;;;;;5093751;28;20562;-47
2021/12/04 06:28:28;;;;;;;33.55;13.63;;;4.10;99.90;;;;;;5086290;28;20049;-49
2021/12/04 06:30:54;;;;;;;31.67;12.38;;;4.10;99.90;;;;;;5066925;28;20089;-47
2021/12/04 06:33:21;;;;;;;25.60;11.23;;;4.10;99.90;;;;;;5091320;28;20048;-46
2021/12/04 06:35:48;;;;;;;24.70;11.07;;;4.10;99.90;;;;;;5074597;28;20455;-46
2021/12/04 06:38:18;;;;;;;25.85;12.25;;;4.10;99.90;;;;;;5074825;28;20565;-47
2021/12/04 06:40:45;;;;;;;31.65;12.18;;;4.10;99.90;;;;;;5058265;28;20036;-47
2021/12/04 06:43:11;;;;;;;;;;;4.10;99.90;;;;;;5058246;28;20421;-47
2021/12/04 06:45:41;;;;;;;31.20;11.73;;;4.10;99.90;;;;;;5091982;28;19922;-47
2021/12/04 06:48:13;;;;;;;29.73;12.10;;;4.10;99.90;;;;;;5074222;28;20485;-49
2021/12/04 06:53:20;;;;;;;29.73;12.00;;;4.10;99.90;;;;;;5074070;28;20105;-46
2021/12/04 06:55:50;;;;;;;30.83;12.55;;;4.10;99.90;;;;;;5074096;28;20040;-48
2021/12/04 06:58:16;;;;;;;29.10;12.32;;;4.10;99.90;;;;;;5092688;28;20047;-46
2021/12/04 07:00:43;;;;;;;32.23;12.17;;;4.10;99.90;;;;;;5092073;28;20039;-47
2021/12/04 07:03:09;;;;;;;30.02;11.93;;;4.10;99.90;;;;;;5074652;28;20446;-48
2021/12/04 07:05:35;;;;;;;28.85;12.25;;;4.10;99.90;;;;;;5083252;28;20811;-47
2021/12/04 07:08:01;;;;;;;27.95;12.48;;;4.10;99.90;;;;;;5074188;28;20089;-47
2021/12/04 07:10:27;;;;;;;29.38;12.40;;;4.10;99.90;;;;;;5091918;28;20048;-47
2021/12/04 07:12:53;;;;;;;34.33;12.63;;;4.10;99.90;;;;;;5091875;28;20139;-48
2021/12/04 07:15:19;;;;;;;29.92;12.23;;;4.10;99.90;;;;;;5073604;28;20536;-47
2021/12/04 07:17:45;;;;;;;30.60;13.52;;;4.20;99.90;;;;;;5091858;28;20508;-47
2021/12/04 07:20:11;;;;;;;31.02;12.07;;;4.20;99.90;;;;;;5079622;28;20032;-47
2021/12/04 07:22:37;;;;;;;36.25;14.05;;;4.10;99.90;;;;;;5087741;28;20076;-49
2021/12/04 07:25:04;;;;;;;37.72;13.23;;;4.20;99.90;;;;;;5079891;28;20246;-47
2021/12/04 07:27:31;;;;;;;39.03;14.30;;;4.20;99.90;;;;;;5068683;28;20056;-47
2021/12/04 07:29:57;;;;;;;41.38;13.77;;;4.20;99.90;;;;;;5078453;28;20048;-50
2021/12/04 07:32:25;;;;;;;37.28;13.15;;;4.20;99.90;;;;;;5073887;28;20061;-46
2021/12/04 07:34:51;;;;;;;36.50;13.75;;;4.20;99.90;;;;;;5078453;28;20048;-47
2021/12/04 07:37:17;;;;;;;40.28;13.57;;;4.20;99.90;;;;;;5072418;28;20147;-47
2021/12/04 07:39:44;;;;;;;38.10;13.18;;;4.20;99.90;;;;;;5080882;28;20150;-47
2021/12/04 07:42:11;;;;;;;34.83;12.65;;;4.20;99.90;;;;;;5072944;28;20070;-47
2021/12/04 07:44:37;;;;;;;34.38;13.55;;;4.20;99.90;;;;;;5069298;28;20075;-47
2021/12/04 07:47:04;;;;;;;37.80;13.32;;;4.20;99.90;;;;;;5070384;28;20076;-47
2021/12/04 07:49:30;;;;;;;34.40;12.90;;;4.20;99.90;;;;;;5072763;28;20071;-48
2021/12/04 07:51:56;;;;;;;36.88;13.10;;;4.20;99.90;;;;;;5068904;28;20083;-48
2021/12/04 07:54:22;;;;;;;35.75;13.02;;;4.20;99.90;;;;;;5068746;28;20047;-47
2021/12/04 07:56:48;;;;;;;35.67;12.65;;;4.20;99.90;;;;;;5045385;28;20044;-46
2021/12/04 07:59:14;;;;;;;43.08;13.25;;;4.20;99.90;;;;;;5068612;28;20139;-47
2021/12/04 08:01:40;;;;;;;42.00;13.07;;;4.20;99.90;;;;;;5067738;28;20490;-47
2021/12/04 08:04:06;;;;;;;38.83;13.93;;;4.20;99.90;;;;;;5069708;28;20494;-48
2021/12/04 08:06:33;;;;;;;40.58;13.80;;;4.20;99.90;;;;;;5073950;28;20085;-47
2021/12/04 08:09:00;;;;;;;35.97;13.45;;;4.20;99.90;;;;;;5079102;28;20107;-46
2021/12/04 08:11:27;;;;;;;37.78;13.10;;;4.20;99.90;;;;;;5068589;28;20052;-48
2021/12/04 08:13:54;;;;;;;41.40;14.48;;;4.20;99.90;;;;;;5051839;28;20059;-48
2021/12/04 08:16:24;;;;;;;40.85;14.05;;;4.20;99.90;;;;;;5057222;28;20094;-47
2021/12/04 08:18:51;;;;;;;37.65;13.70;;;4.10;99.90;;;;;;5077603;28;20043;-49
2021/12/04 08:21:18;;;;;;;40.53;13.73;;;4.20;99.90;;;;;;5056941;28;20041;-48
2021/12/04 08:23:44;;;;;;;35.73;12.73;;;4.20;99.90;;;;;;5075177;28;20121;-47
2021/12/04 08:26:10;;;;;;;39.92;13.52;;;4.20;99.90;;;;;;5074767;28;20317;-47
2021/12/04 08:28:36;;;;;;;33.17;12.32;;;4.20;99.90;;;;;;5062906;28;20394;-48
2021/12/04 08:31:02;;;;;;;32.70;12.93;;;4.20;99.90;;;;;;5062923;28;20063;-46
2021/12/04 08:33:28;;;;;;;34.53;12.85;;;4.20;99.90;;;;;;5070322;28;20075;-47
2021/12/04 08:35:55;;;;;;;28.98;12.70;;;4.20;99.90;;;;;;5081875;28;20066;-47
2021/12/04 08:38:21;;;;;;;35.22;12.93;;;4.20;99.90;;;;;;5076328;28;20035;-48
2021/12/04 08:40:47;;;;;;;30.77;12.43;;;4.20;99.90;;;;;;5097079;28;20157;-47
2021/12/04 08:43:13;;;;;;;28.20;11.93;;;4.20;99.90;;;;;;5065792;28;20435;-47
2021/12/04 08:45:40;;;;;;;29.63;12.85;;;4.20;99.90;;;;;;5054436;28;20079;-47
2021/12/04 08:48:08;;;;;;;32.17;12.02;;;4.20;99.90;;;;;;5071719;28;20051;-46
2021/12/04 08:50:35;;;;;;;;;;;4.20;99.90;;;;;;5077947;28;20067;-48
2021/12/04 08:53:02;;;;;;;25.83;10.70;;;4.10;99.90;;;;;;5090277;28;19916;-47
2021/12/04 08:55:30;;;;;;;28.05;11.95;;;4.20;99.90;;;;;;5096774;28;20409;-48
2021/12/04 08:57:56;;;;;;;30.90;11.95;;;4.20;99.90;;;;;;5089770;28;20503;-46
2021/12/04 09:00:30;;;;;;;24.30;11.50;;;4.20;99.90;;;;;;5079927;28;20047;-48
2021/12/04 09:02:57;;;;;;;26.95;12.02;;;4.20;99.90;;;;;;5089369;28;20051;-47
2021/12/04 09:05:23;;;;;;;27.90;11.23;;;4.20;99.90;;;;;;5070604;28;20127;-47
2021/12/04 09:07:51;;;;;;;30.48;11.73;;;4.20;99.90;;;;;;5092290;28;20064;-46
2021/12/04 09:10:17;;;;;;;27.73;11.52;;;4.20;99.90;;;;;;5078961;28;20071;-46
2021/12/04 09:12:44;;;;;;;25.10;10.67;;;4.20;99.90;;;;;;5094807;28;20091;-47
2021/12/04 09:15:14;;;;;;;23.67;11.13;;;4.20;99.90;;;;;;5073124;28;20047;-47
2021/12/04 09:17:40;;;;;;;28.65;10.43;;;4.20;99.90;;;;;;5094733;28;20350;-47
2021/12/04 09:20:08;;;;;;;25.38;10.27;;;4.20;99.90;;;;;;5087523;28;20424;-48
2021/12/04 09:22:36;;;;;;;;;;;4.30;99.90;;;;;;5093327;28;20048;-48
2021/12/04 09:25:12;;;;;;;23.95;10.13;;;4.20;99.90;;;;;;5089045;28;20394;-47
2021/12/04 09:36:26;;;;;;;20.58;9.15;;;4.30;99.90;;;;;;5093360;28;20051;-49
2021/12/04 10:06:35;;;;;;;14.60;7.88;;;4.50;99.90;;;;;;5082334;28;20044;-49
2021/12/04 10:33:48;;;;;;;16.63;8.85;;;4.70;99.90;;;;;;5059142;28;20055;-49
2021/12/04 10:36:31;;;;;;;17.48;8.85;;;4.80;99.90;;;;;;5091171;28;20119;-51
2021/12/04 10:38:57;;;;;;;17.85;8.60;;;4.80;99.90;;;;;;5070645;28;20398;-48
2021/12/04 10:41:33;;;;;;;17.45;10.00;;;4.90;99.90;;;;;;5069870;28;20222;-51
2021/12/04 10:44:28;;;;;;;16.70;9.55;;;4.90;99.90;;;;;;5068995;28;20620;-47
2021/12/04 10:46:59;;;;;;;17.77;9.05;;;4.90;99.90;;;;;;5053246;28;20040;-49
2021/12/04 10:49:44;;;;;;;17.25;9.00;;;4.90;99.90;;;;;;5070874;28;20063;-49
2021/12/04 10:52:35;;;;;;;15.85;9.35;;;4.90;99.90;;;;;;5073902;28;20422;-47
2021/12/04 10:55:15;;;;;;;15.10;8.55;;;4.90;99.90;;;;;;5079692;28;20433;-48
2021/12/04 11:25:33;;;;;;;15.25;7.90;;;5.00;99.90;;;;;;5066828;28;20048;-52
2021/12/04 11:41:35;;;;;;;14.07;7.10;;;4.90;99.90;;;;;;5078081;28;20036;-50
2021/12/04 11:46:45;;;;;;;14.95;7.90;;;4.90;99.90;;;;;;5079496;28;20118;-50
2021/12/04 11:49:24;;;;;;;15.55;7.80;;;5.00;99.90;;;;;;5087417;28;20123;-47
2021/12/04 11:51:56;;;;;;;15.23;8.32;;;5.00;99.90;;;;;;5077564;28;20725;-49
2021/12/04 11:54:28;;;;;;;16.83;8.27;;;5.00;99.90;;;;;;5059564;28;20060;-49
2021/12/04 11:57:07;;;;;;;16.80;8.55;;;5.00;99.90;;;;;;5088358;28;20070;-51
2021/12/04 11:59:37;;;;;;;15.82;8.13;;;5.10;99.90;;;;;;5081792;28;20028;-48
2021/12/04 12:02:05;;;;;;;16.98;8.25;;;5.10;99.90;;;;;;5093534;28;20036;-47
2021/12/04 12:04:39;;;;;;;17.77;9.05;;;5.10;99.90;;;;;;5060756;28;20097;-51
2021/12/04 12:07:17;;;;;;;13.63;7.68;;;5.10;99.90;;;;;;5072899;28;20040;-47
2021/12/04 12:09:44;;;;;;;15.20;7.97;;;5.10;99.90;;;;;;5069475;28;20474;-48
2021/12/04 12:12:14;;;;;;;14.73;8.17;;;5.10;99.90;;;;;;5072326;28;20071;-50
2021/12/04 12:14:46;;;;;;;18.20;8.73;;;5.10;99.90;;;;;;5088925;28;20344;-49
2021/12/04 12:17:15;;;;;;;15.13;8.32;;;5.10;99.90;;;;;;5088079;28;20462;-47
2021/12/04 12:19:50;;;;;;;16.73;9.38;;;5.10;99.90;;;;;;5056916;28;20515;-50
2021/12/04 12:36:04;;;;;;;23.15;11.13;;;5.00;99.90;;;;;;5071506;28;20048;-49
2021/12/04 12:38:41;;;;;;;21.25;11.70;;;5.00;99.90;;;;;;5084406;28;20474;-48
2021/12/04 12:41:35;;;;;;;24.40;10.57;;;5.00;99.90;;;;;;5065453;28;20040;-49
2021/12/04 12:44:15;;;;;;;21.30;10.07;;;5.00;99.90;;;;;;5085295;28;20123;-50
2021/12/04 12:46:46;;;;;;;22.30;10.52;;;5.10;99.90;;;;;;5084948;28;20059;-50
2021/12/04 12:49:21;;;;;;;22.52;10.88;;;5.20;99.90;;;;;;5069422;28;20513;-49
2021/12/04 12:52:00;;;;;;;22.42;11.65;;;5.20;99.90;;;;;;5073932;28;20044;-49
2021/12/04 12:54:31;;;;;;;23.15;11.90;;;5.20;99.90;;;;;;5093727;28;20080;-49
2021/12/04 12:57:01;;;;;;;21.92;11.50;;;5.20;99.90;;;;;;5077717;28;20079;-48
2021/12/04 13:11:38;;;;;;;22.42;11.30;;;5.20;99.90;;;;;;5091547;28;20047;-48
2021/12/04 13:14:17;;;;;;;25.17;12.32;;;5.00;99.90;;;;;;5087100;28;20411;-47
2021/12/04 13:16:46;;;;;;;24.98;11.95;;;5.00;99.90;;;;;;5091027;28;20393;-47
2021/12/04 13:19:15;;;;;;;24.55;12.70;;;5.00;99.90;;;;;;5086561;28;20115;-48
2021/12/04 13:21:48;;;;;;;23.08;12.68;;;5.00;99.90;;;;;;5083137;28;20055;-48
2021/12/04 13:24:14;;;;;;;26.33;12.77;;;5.00;99.90;;;;;;5078645;28;20040;-49
2021/12/04 13:26:44;;;;;;;28.02;12.77;;;5.00;99.90;;;;;;5061160;28;20101;-48
2021/12/04 13:29:12;;;;;;;25.83;13.63;;;5.00;99.90;;;;;;5060026;28;20261;-47
2021/12/04 13:31:38;;;;;;;27.75;14.32;;;5.00;99.90;;;;;;5050516;28;20102;-47
2021/12/04 13:34:21;;;;;;;29.65;14.50;;;5.00;99.90;;;;;;5082681;28;20040;-47
2021/12/04 13:36:47;;;;;;;27.50;14.93;;;5.00;99.90;;;;;;5073862;28;20096;-48
2021/12/04 13:39:15;;;;;;;27.05;14.70;;;5.00;99.90;;;;;;5070135;28;20489;-48
2021/12/04 13:41:43;;;;;;;32.42;16.02;;;5.00;99.90;;;;;;5071344;28;20047;-48
2021/12/04 13:44:11;;;;;;;30.02;15.55;;;5.00;99.90;;;;;;5068650;28;20394;-47
2021/12/04 13:47:00;;;;;;;30.85;16.25;;;5.00;99.90;;;;;;5071878;28;20355;-48
2021/12/04 13:49:53;;;;;;;29.77;15.70;;;5.00;99.90;;;;;;5083307;28;20486;-47
2021/12/04 13:52:20;;;;;;;33.70;16.33;;;5.00;99.90;;;;;;5071445;28;20673;-46
2021/12/04 13:54:50;;;;;;;34.53;16.10;;;5.00;99.90;;;;;;5071744;28;20399;-48
2021/12/04 13:57:18;;;;;;;30.58;16.67;;;4.90;99.90;;;;;;5091871;28;20385;-49
2021/12/04 13:59:44;;;;;;;39.10;17.38;;;5.00;99.90;;;;;;5079134;28;20044;-47
2021/12/04 14:02:22;;;;;;;32.72;17.10;;;5.00;99.90;;;;;;5080506;28;20039;-49
2021/12/04 14:05:00;;;;;;;35.30;18.02;;;5.00;99.90;;;;;;5076783;28;20543;-48
2021/12/04 14:07:27;;;;;;;37.30;19.17;;;4.90;99.90;;;;;;5070448;28;20072;-48
2021/12/04 14:09:54;;;;;;;39.08;18.77;;;4.90;99.90;;;;;;5075904;28;20340;-47
2021/12/04 14:12:20;;;;;;;40.13;17.63;;;4.90;99.90;;;;;;5079896;28;20051;-47
2021/12/04 14:14:46;;;;;;;40.28;18.27;;;4.90;99.90;;;;;;5068630;28;20429;-48
2021/12/04 14:17:16;;;;;;;39.92;18.15;;;4.90;99.90;;;;;;5070869;28;20076;-47
2021/12/04 14:19:42;;;;;;;41.88;19.25;;;4.90;99.90;;;;;;5070605;28;20539;-47
2021/12/04 14:22:18;;;;;;;38.28;17.02;;;4.90;99.90;;;;;;5070451;28;20044;-47
2021/12/04 14:24:57;;;;;;;39.75;17.08;;;4.90;99.90;;;;;;5070728;28;20042;-47
2021/12/04 14:27:27;;;;;;;38.97;17.52;;;5.00;99.90;;;;;;5086709;28;20052;-48
2021/12/04 14:30:01;;;;;;;38.38;18.15;;;5.00;99.90;;;;;;5045950;28;20055;-47
2021/12/04 14:32:30;;;;;;;43.90;18.73;;;4.90;99.90;;;;;;5072870;28;20051;-51
2021/12/04 14:34:59;;;;;;;48.33;19.63;;;4.90;99.90;;;;;;5091558;28;20039;-47
2021/12/04 14:37:25;;;;;;;40.95;16.92;;;4.90;99.90;;;;;;5091295;28;20050;-47
2021/12/04 14:39:51;;;;;;;44.50;18.58;;;4.90;99.90;;;;;;5073317;28;20040;-48
2021/12/04 14:42:22;;;;;;;42.00;18.13;;;4.90;99.90;;;;;;5053137;28;20466;-47
2021/12/04 14:44:51;;;;;;;36.60;17.13;;;4.90;99.90;;;;;;5094426;28;20145;-48
2021/12/04 14:47:19;;;;;;;46.03;17.60;;;4.90;99.90;;;;;;5090753;28;20047;-48
2021/12/04 14:49:47;;;;;;;43.17;18.50;;;4.90;99.90;;;;;;5090017;28;20428;-48
2021/12/04 14:52:19;;;;;;;42.38;17.98;;;4.90;99.90;;;;;;5091087;28;20040;-47
2021/12/04 14:54:46;;;;;;;39.92;17.75;;;4.90;99.90;;;;;;5102915;28;20528;-48
2021/12/04 14:57:25;;;;;;;43.80;17.17;;;4.90;99.90;;;;;;5090817;28;20036;-48
2021/12/04 15:00:10;;;;;;;44.40;19.15;;;4.90;99.90;;;;;;5098866;28;20093;-47
2021/12/04 15:02:36;;;;;;;46.70;19.08;;;4.90;99.90;;;;;;5091096;28;20032;-47
2021/12/04 15:05:04;;;;;;;42.45;18.67;;;4.90;99.90;;;;;;5058900;28;20182;-48
2021/12/04 15:07:33;;;;;;;42.05;17.88;;;4.90;99.90;;;;;;5090551;28;20503;-47
2021/12/04 15:10:17;;;;;;;43.15;18.15;;;4.90;99.90;;;;;;5063135;28;20032;-47
2021/12/04 15:12:43;;;;;;;39.13;18.02;;;4.90;99.90;;;;;;5089809;28;20043;-47
2021/12/04 15:15:10;;;;;;;39.60;17.15;;;4.90;99.90;;;;;;5095336;28;20040;-47
2021/12/04 15:17:39;;;;;;;44.08;17.13;;;4.90;99.90;;;;;;5087689;28;20040;-48
2021/12/04 15:20:11;;;;;;;39.58;16.80;;;4.90;99.90;;;;;;5094687;28;20062;-48
2021/12/04 15:22:44;;;;;;;37.65;16.15;;;4.90;99.90;;;;;;5071192;28;20058;-47
2021/12/04 15:25:16;;;;;;;39.17;17.00;;;4.90;99.90;;;;;;5070538;28;20126;-48
2021/12/04 15:27:43;;;;;;;43.08;17.60;;;4.90;99.90;;;;;;5054443;28;20052;-47
2021/12/04 15:30:14;;;;;;;40.25;16.65;;;4.90;99.90;;;;;;5071501;28;20375;-48
2021/12/04 15:32:42;;;;;;;44.38;17.80;;;4.90;99.90;;;;;;5070998;28;20109;-47
2021/12/04 15:38:21;;;;;;;45.33;17.08;;;4.90;99.90;;;;;;5064401;28;20090;-49
2021/12/04 15:43:54;;;;;;;43.13;17.65;;;4.90;99.90;;;;;;5087591;28;20062;-48
2021/12/04 15:54:12;;;;;;;49.45;19.88;;;4.80;99.90;;;;;;5083473;28;20090;-49
2021/12/04 15:56:45;;;;;;;51.15;20.98;;;4.80;99.90;;;;;;5089062;28;20051;-48
2021/12/04 15:59:20;;;;;;;49.20;21.08;;;4.80;99.90;;;;;;5087218;28;20036;-48
2021/12/04 16:01:47;;;;;;;52.33;20.17;;;4.80;99.90;;;;;;5090752;28;20047;-51
2021/12/04 16:04:30;;;;;;;;;;;4.80;99.90;;;;;;5069669;28;20036;-49
2021/12/04 16:06:58;;;;;;;54.97;21.25;;;4.80;99.90;;;;;;5087584;28;19998;-51
2021/12/04 16:09:31;;;;;;;50.50;19.55;;;4.80;99.90;;;;;;5085875;28;20047;-50
2021/12/04 16:12:03;;;;;;;50.30;20.23;;;4.80;99.90;;;;;;5089085;28;20489;-48
2021/12/04 16:14:31;;;;;;;49.22;19.65;;;4.80;99.90;;;;;;5070229;28;20478;-47
2021/12/04 16:16:58;;;;;;;47.80;19.40;;;4.80;99.90;;;;;;5089157;28;20036;-48
2021/12/04 16:19:24;;;;;;;48.45;21.73;;;4.80;99.90;;;;;;5087956;28;20048;-48